D/T METAR WX W/SPE G/SPE TEMP DEWP FEEL
31/01/23 07:20 EGQK 310720Z AUTO 26025G37KT 9999 // FEW044/// 04/01 Q1006 28.8mph 42.6mph 4°C 1°C 2.1°C
31/01/23 06:50 EGQK 310650Z AUTO 25031G47KT 9999 // BKN010/// 03/01 Q1006 35.7mph 54.1mph 3°C 1°C 1.1°C
31/01/23 04:20 EGQK 310420Z AUTO 26020KT 7000 -RA BKN032/// 06/03 Q1006 -RA 23.0mph 6°C 3°C 4.7°C
30/01/23 12:50 EGQK 301250Z AUTO 27014KT 9999 FEW031/// 07/02 Q1018 16.1mph 7°C 2°C 5.4°C
30/01/23 11:50 EGQK 301150Z AUTO 27007KT 9999 BKN033/// 07/02 Q1018 8.1mph 7°C 2°C 5.4°C
30/01/23 10:50 EGQK 301050Z AUTO 22006KT 9999 NCD 06/02 Q1018 6.9mph 6°C 2°C 4.4°C
30/01/23 10:20 EGQK 301020Z AUTO 28014KT 9999 NCD 05/02 Q1017 16.1mph 5°C 2°C 3.4°C
30/01/23 09:50 EGQK 300950Z AUTO 28016KT 9999 BKN028/// 05/02 Q1017 18.4mph 5°C 2°C 3.4°C
30/01/23 07:50 EGQK 300750Z AUTO 28012KT 9999 FEW240/// 05/02 Q1016 13.8mph 5°C 2°C 3.4°C
30/01/23 06:20 EGQK 300620Z AUTO 29015KT 9999 FEW250/// 05/02 Q1014 17.3mph 5°C 2°C 3.4°C
09/01/23 06:20 EGQK 090620Z AUTO 20007KT 9999 FEW240/// 04/01 Q0983 8.1mph 4°C 1°C 2.1°C
09/01/23 05:50 EGQK 090550Z AUTO 21008KT 9999 SCT220/// 04/01 Q0982 9.2mph 4°C 1°C 2.1°C
09/01/23 05:20 EGQK 090520Z AUTO 22012KT 9999 FEW170/// BKN220/// 05/02 Q0982 13.8mph 5°C 2°C 3.4°C
09/01/23 04:50 EGQK 090450Z AUTO 22006KT 9999 SCT220/// 03/01 Q0981 6.9mph 3°C 1°C 1.1°C
09/01/23 04:20 EGQK 090420Z AUTO 22008KT 9999 SCT240/// 03/01 Q0981 9.2mph 3°C 1°C 1.1°C
09/01/23 03:50 EGQK 090350Z AUTO 21006KT 9999 FEW250/// 03/01 Q0981 6.9mph 3°C 1°C 1.1°C
09/01/23 03:20 EGQK 090320Z AUTO 20007KT 9999 SCT250/// 04/02 Q0980 8.1mph 4°C 2°C 2.4°C
09/01/23 02:50 EGQK 090250Z AUTO 23007KT 9999 BKN047/// SCT240/// 03/01 Q0980 8.1mph 3°C 1°C 1.1°C
09/01/23 02:20 EGQK 090220Z AUTO 22008KT 9999 BKN240/// 04/01 Q0980 9.2mph 4°C 1°C 2.1°C
09/01/23 01:20 EGQK 090120Z AUTO 13002KT 9999 BKN049/// SCT074/// 02/00 Q0979 2.3mph 2°C 0°C -0.2°C
09/01/23 00:50 EGQK 090050Z AUTO 25003KT 9999 OVC052/// 03/01 Q0979 3.5mph 3°C 1°C 1.1°C
09/01/23 00:20 EGQK 090020Z AUTO 20001KT 9999 FEW072/// 03/00 Q0978 1.2mph 3°C 0°C 0.8°C
08/01/23 23:50 EGQK 082350Z AUTO 23004KT 9999 NCD 02/M01 Q0978 4.6mph 2°C -1°C -0.4°C
08/01/23 23:20 EGQK 082320Z AUTO 24004KT 9999 FEW250/// 05/01 Q0977 4.6mph 5°C 1°C 3.1°C
08/01/23 22:50 EGQK 082250Z AUTO 20008KT 9999 FEW240/// 04/01 Q0977 9.2mph 4°C 1°C 2.1°C
08/01/23 22:20 EGQK 082220Z AUTO 22006KT 9999 FEW220/// 04/01 Q0977 6.9mph 4°C 1°C 2.1°C
08/01/23 21:50 EGQK 082150Z AUTO 21005KT 9999 // OVC170/// 04/01 Q0977 5.8mph 4°C 1°C 2.1°C
08/01/23 20:20 EGQK 082020Z AUTO 21010KT 9999 OVC061/// 06/01 Q0976 11.5mph 6°C 1°C 4.1°C
08/01/23 19:20 EGQK 081920Z AUTO 20008KT 9999 OVC140/// 06/01 Q0975 9.2mph 6°C 1°C 4.1°C
08/01/23 18:50 EGQK 081850Z AUTO 20010G20KT 9999 OVC130/// 06/00 Q0975 11.5mph 23.0mph 6°C 0°C 3.8°C
08/01/23 18:20 EGQK 081820Z AUTO 19009KT 9999 BKN100/// OVC150/// 07/M01 Q0975 10.4mph 7°C -1°C 4.6°C
08/01/23 17:50 EGQK 081750Z AUTO 19011KT 9999 OVC140/// 06/M01 Q0975 12.7mph 6°C -1°C 3.6°C
08/01/23 17:20 EGQK 081720Z AUTO 19011KT 9999 BKN130/// BKN230/// 06/M01 Q0975 12.7mph 6°C -1°C 3.6°C
08/01/23 16:50 EGQK 081650Z AUTO 20014KT 9999 FEW130/// SCT240/// 06/M01 Q0975 16.1mph 6°C -1°C 3.6°C
08/01/23 16:20 EGQK 081620Z AUTO 20015G25KT 9999 FEW250/// 06/M01 Q0975 17.3mph 28.8mph 6°C -1°C 3.6°C
08/01/23 15:50 EGQK 081550Z AUTO 19012KT 9999 NCD 07/M01 Q0975 13.8mph 7°C -1°C 4.6°C
08/01/23 15:20 EGQK 081520Z AUTO 19016KT 9999 NCD 07/M01 Q0975 18.4mph 7°C -1°C 4.6°C
08/01/23 14:20 EGQK 081420Z AUTO 19011KT 9999 NCD 07/M01 Q0975 12.7mph 7°C -1°C 4.6°C
08/01/23 13:50 EGQK 081350Z AUTO 20013KT 9999 FEW170/// 07/M01 Q0975 15.0mph 7°C -1°C 4.6°C
08/01/23 13:20 EGQK 081320Z AUTO 20015KT 9999 NCD 08/M02 Q0975 17.3mph 8°C -2°C 5.4°C
08/01/23 12:50 EGQK 081250Z AUTO 20019G33KT 9999 SCT150/// 08/M01 Q0975 21.9mph 38.0mph 8°C -1°C 5.6°C
08/01/23 12:20 EGQK 081220Z AUTO 21016G26KT 9999 FEW049/// 08/M00 Q0975 18.4mph 29.9mph 8°C 0°C 5.8°C
08/01/23 11:50 EGQK 081150Z AUTO 20017KT 9999 NCD 08/M01 Q0975 19.6mph 8°C -1°C 5.6°C
08/01/23 11:20 EGQK 081120Z AUTO 20014G24KT 9999 NCD 07/M01 Q0975 16.1mph 27.6mph 7°C -1°C 4.6°C
08/01/23 10:50 EGQK 081050Z AUTO 20017G29KT 9999 NCD 07/M01 Q0975 19.6mph 33.4mph 7°C -1°C 4.6°C
08/01/23 10:20 EGQK 081020Z AUTO 20019G31KT 9999 NCD 07/M01 Q0975 21.9mph 35.7mph 7°C -1°C 4.6°C
08/01/23 09:50 EGQK 080950Z AUTO 20017G30KT 9999 FEW240/// 07/01 Q0974 19.6mph 34.5mph 7°C 1°C 5.1°C
08/01/23 09:20 EGQK 080920Z AUTO 19017G33KT 9999 BKN170/// SCT240/// 06/01 Q0974 19.6mph 38.0mph 6°C 1°C 4.1°C
08/01/23 08:50 EGQK 080850Z AUTO 19013G23KT 9999 BKN170/// 07/00 Q0975 15.0mph 26.5mph 7°C 0°C 4.8°C
08/01/23 08:20 EGQK 080820Z AUTO 20018G31KT 9999 FEW250/// 06/01 Q0975 20.7mph 35.7mph 6°C 1°C 4.1°C
08/01/23 07:50 EGQK 080750Z AUTO 20016G26KT 9999 SCT250/// 07/M00 Q0975 18.4mph 29.9mph 7°C 0°C 4.8°C
08/01/23 07:20 EGQK 080720Z AUTO 19015G28KT 9999 FEW250/// 07/M00 Q0975 17.3mph 32.2mph 7°C 0°C 4.8°C
08/01/23 06:50 EGQK 080650Z AUTO 20014G25KT 9999 FEW250/// 06/00 Q0975 16.1mph 28.8mph 6°C 0°C 3.8°C
08/01/23 06:20 EGQK 080620Z AUTO 19017G28KT 9999 FEW250/// 06/01 Q0975 19.6mph 32.2mph 6°C 1°C 4.1°C
08/01/23 05:50 EGQK 080550Z AUTO 21013G23KT 9999 FEW250/// 06/02 Q0976 15.0mph 26.5mph 6°C 2°C 4.4°C
08/01/23 05:20 EGQK 080520Z AUTO 21017G28KT 9999 FEW250/// 07/02 Q0975 19.6mph 32.2mph 7°C 2°C 5.4°C
08/01/23 04:50 EGQK 080450Z AUTO 20016G26KT 9999 FEW250/// 07/02 Q0975 18.4mph 29.9mph 7°C 2°C 5.4°C
08/01/23 04:20 EGQK 080420Z AUTO 20014G26KT 9999 NCD 07/02 Q0975 16.1mph 29.9mph 7°C 2°C 5.4°C
08/01/23 03:50 EGQK 080350Z AUTO 21013KT 9999 // NCD 06/01 Q0975 15.0mph 6°C 1°C 4.1°C
08/01/23 03:20 EGQK 080320Z AUTO 21018G30KT 9999 // FEW095/// 06/01 Q0975 20.7mph 34.5mph 6°C 1°C 4.1°C
08/01/23 02:50 EGQK 080250Z AUTO 21017G27KT 9999 -RA FEW025/// 07/03 Q0975 -RA 19.6mph 31.1mph 7°C 3°C 5.7°C
08/01/23 02:20 EGQK 080220Z AUTO 20014G24KT 9999 BKN190/// 07/02 Q0974 16.1mph 27.6mph 7°C 2°C 5.4°C
08/01/23 01:50 EGQK 080150Z AUTO 20013G25KT 9999 FEW054/// 08/02 Q0974 15.0mph 28.8mph 8°C 2°C 6.4°C
08/01/23 01:20 EGQK 080120Z AUTO 08003KT 9999 SCT074/// 06/01 Q0974 3.5mph 6°C 1°C 4.1°C
08/01/23 00:20 EGQK 080020Z AUTO 15008KT 9999 OVC190/// 07/02 Q0974 9.2mph 7°C 2°C 5.4°C
07/01/23 23:50 EGQK 072350Z AUTO 15009KT 9999 NCD 07/02 Q0974 10.4mph 7°C 2°C 5.4°C
07/01/23 23:20 EGQK 072320Z AUTO 16009KT 9999 NCD 07/02 Q0975 10.4mph 7°C 2°C 5.4°C
07/01/23 22:50 EGQK 072250Z AUTO 18002KT 9999 BKN034/// 06/01 Q0975 2.3mph 6°C 1°C 4.1°C
07/01/23 22:20 EGQK 072220Z AUTO 18008KT 9999 FEW250/// 08/02 Q0975 9.2mph 8°C 2°C 6.4°C
07/01/23 21:50 EGQK 072150Z AUTO 16005KT 9999 SCT047/// 07/02 Q0975 5.8mph 7°C 2°C 5.4°C
07/01/23 21:20 EGQK 072120Z AUTO 15011KT 9999 SCT230/// 07/02 Q0975 12.7mph 7°C 2°C 5.4°C
07/01/23 20:50 EGQK 072050Z AUTO 15011KT 9999 FEW220/// 07/02 Q0976 12.7mph 7°C 2°C 5.4°C
07/01/23 20:20 EGQK 072020Z AUTO 17005KT 9999 OVC200/// 07/01 Q0977 5.8mph 7°C 1°C 5.1°C
07/01/23 19:50 EGQK 071950Z AUTO 18009KT 9999 NCD 07/01 Q0977 10.4mph 7°C 1°C 5.1°C
07/01/23 19:20 EGQK 071920Z AUTO 19013G25KT 9999 FEW250/// 07/00 Q0978 15.0mph 28.8mph 7°C 0°C 4.8°C
07/01/23 18:50 EGQK 071850Z AUTO 28003KT 9999 FEW250/// 06/00 Q0978 3.5mph 6°C 0°C 3.8°C
07/01/23 18:20 EGQK 071820Z AUTO 16006KT 9999 FEW051/// 07/02 Q0978 6.9mph 7°C 2°C 5.4°C
07/01/23 17:50 EGQK 071750Z AUTO 12001KT 9999 OVC041/// 06/01 Q0979 1.2mph 6°C 1°C 4.1°C
07/01/23 17:20 EGQK 071720Z AUTO 31003KT 9999 SCT045/// 05/M00 Q0979 3.5mph 5°C 0°C 2.8°C
07/01/23 16:50 EGQK 071650Z AUTO 16008KT 9999 SCT130/// 08/01 Q0979 9.2mph 8°C 1°C 6.1°C
07/01/23 16:20 EGQK 071620Z AUTO 18006KT 9999 SCT032/// 06/03 Q0980 6.9mph 6°C 3°C 4.7°C
07/01/23 15:50 EGQK 071550Z AUTO 13002KT 9999 FEW034/// 05/02 Q0980 2.3mph 5°C 2°C 3.4°C
07/01/23 15:20 EGQK 071520Z AUTO 18005KT 9999 OVC037/// 09/04 Q0980 5.8mph 9°C 4°C 8.0°C
07/01/23 14:50 EGQK 071450Z AUTO 11003KT 9999 OVC035/// 07/05 Q0981 3.5mph 7°C 5°C 6.3°C
07/01/23 14:20 EGQK 071420Z AUTO 10001KT 9999 BKN038/// 08/04 Q0981 1.2mph 8°C 4°C 7.0°C
07/01/23 13:50 EGQK 071350Z AUTO 16003KT 9999 FEW100/// 08/04 Q0982 3.5mph 8°C 4°C 7.0°C
07/01/23 12:50 EGQK 071250Z AUTO 14005KT 9999 BKN082/// BKN100/// 07/05 Q0983 5.8mph 7°C 5°C 6.3°C
07/01/23 12:20 EGQK 071220Z AUTO 17004KT 9999 FEW037/// BKN094/// 08/04 Q0983 4.6mph 8°C 4°C 7.0°C
07/01/23 11:50 EGQK 071150Z AUTO 20005KT 9999 FEW040/// SCT081/// BKN096/// 08/04 Q0984 5.8mph 8°C 4°C 7.0°C
07/01/23 11:20 EGQK 071120Z AUTO 22004KT 9999 FEW065/// BKN079/// 07/04 Q0984 4.6mph 7°C 4°C 6.0°C
07/01/23 10:50 EGQK 071050Z AUTO 22001KT 9999 OVC066/// 07/04 Q0985 1.2mph 7°C 4°C 6.0°C
07/01/23 10:20 EGQK 071020Z AUTO 23005KT 9999 OVC064/// 07/04 Q0985 5.8mph 7°C 4°C 6.0°C
07/01/23 09:50 EGQK 070950Z AUTO 19005KT 9999 OVC065/// 08/04 Q0985 5.8mph 8°C 4°C 7.0°C
07/01/23 09:20 EGQK 070920Z AUTO 19009KT 9999 OVC065/// 08/04 Q0985 10.4mph 8°C 4°C 7.0°C
07/01/23 08:50 EGQK 070850Z AUTO 19008KT 9999 OVC073/// 08/05 Q0986 9.2mph 8°C 5°C 7.3°C
07/01/23 08:20 EGQK 070820Z AUTO 23006KT 9999 BKN076/// 08/05 Q0986 6.9mph 8°C 5°C 7.3°C